createdAt,value
2024-01-22T00:01:31.658Z,65.60
2024-01-22T00:06:39.559Z,65.86
2024-01-22T00:11:42.998Z,66.28
2024-01-22T00:16:45.894Z,66.45
2024-01-22T00:21:49.292Z,66.39
2024-01-22T00:26:52.276Z,66.37
2024-01-22T00:31:55.121Z,66.33
2024-01-22T00:36:58.025Z,66.70
2024-01-22T00:42:00.989Z,66.84
2024-01-22T00:47:03.901Z,66.71
2024-01-22T00:52:06.639Z,66.84
2024-01-22T00:57:09.684Z,67.01
2024-01-22T01:02:12.533Z,66.85
2024-01-22T01:07:15.423Z,67.07
2024-01-22T01:12:18.241Z,67.03
2024-01-22T01:17:21.133Z,67.07
2024-01-22T01:22:24.093Z,66.89
2024-01-22T01:27:26.991Z,67.08
2024-01-22T01:32:30.203Z,66.80
2024-01-22T01:37:33.074Z,66.92
2024-01-22T01:42:36.040Z,67.13
2024-01-22T01:47:38.969Z,67.54
2024-01-22T01:52:43.102Z,67.62
2024-01-22T01:57:51.038Z,67.76
2024-01-22T02:02:57.487Z,67.87
2024-01-22T02:08:00.557Z,67.96
2024-01-22T02:13:07.857Z,67.96
2024-01-22T02:18:11.260Z,67.99
2024-01-22T02:23:14.314Z,68.05
2024-01-22T02:28:17.226Z,67.97
2024-01-22T02:33:20.490Z,67.86
2024-01-22T02:38:23.439Z,67.79
2024-01-22T02:43:26.465Z,67.01
2024-01-22T02:48:29.528Z,67.38
2024-01-22T02:53:32.631Z,66.79
2024-01-22T02:58:35.475Z,66.86
2024-01-22T03:03:39.005Z,66.14
2024-01-22T03:08:42.370Z,65.87
2024-01-22T03:13:45.224Z,66.43
2024-01-22T03:18:49.093Z,65.98
2024-01-22T03:23:52.334Z,66.26
2024-01-22T03:28:55.606Z,66.54
2024-01-22T03:33:58.692Z,66.80
2024-01-22T03:39:01.601Z,66.53
2024-01-22T03:44:06.504Z,66.86
2024-01-22T03:49:09.927Z,66.89
2024-01-22T03:54:12.802Z,67.07
2024-01-22T03:59:15.998Z,67.15
2024-01-22T04:04:18.772Z,67.18
2024-01-22T04:09:21.610Z,67.55
2024-01-22T04:14:24.497Z,67.90
2024-01-22T04:19:27.543Z,68.09
2024-01-22T04:24:30.611Z,68.27
2024-01-22T04:29:36.702Z,68.34
2024-01-22T04:34:40.938Z,68.34
2024-01-22T04:39:43.945Z,68.74
2024-01-22T04:44:46.942Z,68.70
2024-01-22T04:49:50.149Z,68.49
2024-01-22T04:54:57.033Z,68.33
2024-01-22T05:00:02.335Z,68.41
2024-01-22T05:05:05.528Z,68.19
2024-01-22T05:10:14.750Z,67.58
2024-01-22T05:15:18.464Z,67.24
2024-01-22T05:20:21.585Z,67.59
2024-01-22T05:25:24.440Z,67.66
2024-01-22T05:30:27.354Z,67.98
2024-01-22T05:35:30.211Z,67.83
2024-01-22T05:40:32.994Z,68.00
2024-01-22T05:45:35.779Z,68.05
2024-01-22T05:50:38.822Z,68.38
2024-01-22T05:55:41.796Z,68.40
2024-01-22T06:00:44.899Z,68.30
2024-01-22T06:05:49.039Z,68.22
2024-01-22T06:10:52.308Z,68.43
2024-01-22T06:15:55.240Z,68.26
2024-01-22T06:20:59.007Z,68.30
2024-01-22T06:26:02.506Z,68.66
2024-01-22T06:31:06.105Z,68.57
2024-01-22T06:36:09.257Z,68.83
2024-01-22T06:41:13.087Z,68.75
2024-01-22T06:46:17.084Z,68.81
2024-01-22T06:51:27.112Z,68.75
2024-01-22T06:56:34.182Z,68.94
2024-01-22T07:01:37.382Z,68.76
2024-01-22T07:06:40.555Z,68.42
2024-01-22T07:11:43.653Z,68.61
2024-01-22T07:16:46.742Z,68.76
2024-01-22T07:21:50.256Z,68.58
2024-01-22T07:26:53.265Z,68.66
2024-01-22T07:32:01.931Z,68.73
2024-01-22T07:37:05.274Z,68.93
2024-01-22T07:42:10.284Z,68.59
2024-01-22T07:47:13.302Z,68.50
2024-01-22T07:52:17.172Z,68.70
2024-01-22T07:57:20.366Z,68.70
2024-01-22T08:02:23.740Z,68.77
2024-01-22T08:07:26.760Z,68.94
2024-01-22T08:12:29.655Z,68.94
2024-01-22T08:17:33.151Z,68.95
2024-01-22T08:22:36.383Z,69.39
2024-01-22T08:27:42.240Z,69.81
2024-01-22T08:32:45.374Z,70.37
2024-01-22T08:37:55.755Z,71.08
2024-01-22T08:42:59.213Z,71.43
2024-01-22T08:48:02.223Z,71.89
2024-01-22T08:53:05.209Z,72.68
2024-01-22T08:58:08.073Z,73.96
2024-01-22T09:03:11.783Z,76.64
2024-01-22T09:08:14.921Z,78.67
2024-01-22T09:13:17.858Z,79.88
2024-01-22T09:18:20.945Z,80.76
2024-01-22T09:23:43.787Z,81.12
2024-01-22T09:29:06.597Z,81.56
2024-01-22T09:34:29.509Z,81.63
2024-01-22T09:39:53.281Z,81.51
2024-01-22T09:45:17.321Z,81.36
2024-01-22T09:50:40.391Z,81.01
2024-01-22T09:55:43.508Z,80.79
2024-01-22T10:00:48.199Z,80.79
2024-01-22T10:05:55.470Z,80.75
2024-01-22T10:10:58.697Z,80.21
2024-01-22T10:16:11.587Z,79.62
2024-01-22T10:21:20.124Z,79.39
2024-01-22T10:26:26.137Z,79.52
2024-01-22T10:31:28.959Z,79.61
2024-01-22T10:36:32.055Z,79.47
2024-01-22T10:41:36.569Z,79.08
2024-01-22T10:46:40.344Z,78.61
2024-01-22T10:51:44.575Z,78.45
2024-01-22T10:57:15.092Z,77.87
2024-01-22T11:02:24.931Z,77.14
2024-01-22T11:07:30.204Z,76.70
2024-01-22T11:12:50.012Z,76.52
2024-01-22T11:17:53.071Z,76.12
2024-01-22T11:23:01.392Z,76.37
2024-01-22T11:28:06.645Z,77.14
2024-01-22T11:33:25.396Z,77.43
2024-01-22T11:38:49.880Z,77.69
2024-01-22T11:43:53.066Z,78.09
2024-01-22T11:48:57.400Z,78.55
2024-01-22T11:54:00.634Z,79.57
2024-01-22T11:59:04.036Z,80.72
2024-01-22T12:04:17.574Z,81.22
2024-01-22T12:09:21.861Z,81.24
2024-01-22T12:14:25.920Z,81.46
2024-01-22T12:19:29.366Z,81.82
2024-01-22T12:24:32.880Z,82.43
2024-01-22T12:29:35.829Z,82.49
2024-01-22T12:34:39.910Z,82.91
2024-01-22T12:39:43.124Z,82.73
2024-01-22T12:45:02.455Z,82.17
2024-01-22T12:50:06.398Z,81.90
2024-01-22T12:55:10.416Z,81.54
2024-01-22T13:00:14.332Z,81.44
2024-01-22T13:05:18.200Z,81.35
2024-01-22T13:10:21.213Z,81.16
2024-01-22T13:15:23.950Z,80.95
2024-01-22T13:20:27.053Z,80.93
2024-01-22T13:25:30.233Z,80.89
2024-01-22T13:30:33.118Z,81.00
2024-01-22T13:35:36.171Z,81.12
2024-01-22T13:40:38.925Z,81.04
2024-01-22T13:45:42.779Z,81.49
2024-01-22T13:50:46.095Z,81.48
2024-01-22T13:55:49.842Z,81.38
2024-01-22T14:00:53.071Z,81.36
2024-01-22T14:05:56.108Z,81.52
2024-01-22T14:10:58.789Z,81.99
2024-01-22T14:16:01.676Z,82.45
2024-01-22T14:21:07.272Z,82.33
2024-01-22T14:26:10.678Z,82.81
2024-01-22T14:31:14.324Z,82.56
2024-01-22T14:36:18.544Z,82.79
2024-01-22T14:41:21.358Z,82.78
2024-01-22T14:46:27.466Z,83.06
2024-01-22T14:51:32.510Z,82.93
2024-01-22T14:56:35.287Z,83.07
2024-01-22T15:01:38.350Z,82.58
2024-01-22T15:06:42.970Z,83.33
2024-01-22T15:11:46.056Z,83.61
2024-01-22T15:16:50.321Z,83.40
2024-01-22T15:21:53.331Z,83.46
2024-01-22T15:26:56.128Z,83.66
2024-01-22T15:31:59.398Z,83.69
2024-01-22T15:37:02.724Z,83.61
2024-01-22T15:42:06.500Z,83.38
2024-01-22T15:47:30.057Z,83.40
2024-01-22T15:52:53.049Z,83.21
2024-01-22T15:58:19.930Z,83.20
2024-01-22T16:03:42.844Z,83.10
2024-01-22T16:08:45.904Z,83.06
2024-01-22T16:13:50.197Z,82.74
2024-01-22T16:19:11.247Z,82.53
2024-01-22T16:24:14.844Z,82.59
2024-01-22T16:29:17.640Z,82.78
2024-01-22T16:34:20.715Z,82.93
2024-01-22T16:39:23.531Z,82.96
2024-01-22T16:44:26.351Z,83.10
2024-01-22T16:49:29.327Z,82.86
2024-01-22T16:54:33.066Z,83.02
2024-01-22T16:59:36.133Z,82.88
2024-01-22T17:04:39.069Z,82.67
2024-01-22T17:09:42.225Z,82.64
2024-01-22T17:14:46.511Z,82.81
2024-01-22T17:19:49.809Z,82.44
2024-01-22T17:24:53.061Z,82.68
2024-01-22T17:29:55.917Z,82.50
2024-01-22T17:34:59.520Z,82.71
2024-01-22T17:40:03.116Z,82.71
2024-01-22T17:45:06.827Z,82.62
2024-01-22T17:50:10.259Z,82.56
2024-01-22T17:55:13.660Z,82.42
2024-01-22T18:00:17.167Z,82.62
2024-01-22T18:05:20.194Z,82.28
2024-01-22T18:10:23.270Z,82.47
2024-01-22T18:15:26.174Z,82.41
2024-01-22T18:20:29.141Z,82.12
2024-01-22T18:25:32.011Z,82.25
2024-01-22T18:30:38.166Z,82.22
2024-01-22T18:35:41.149Z,82.22
2024-01-22T18:40:44.326Z,82.35
2024-01-22T18:45:47.390Z,82.33
2024-01-22T18:50:50.404Z,82.58
2024-01-22T18:55:53.227Z,82.54
2024-01-22T19:00:57.150Z,82.47
2024-01-22T19:06:03.314Z,82.64
2024-01-22T19:11:06.452Z,83.02
2024-01-22T19:16:09.228Z,82.91
2024-01-22T19:21:16.177Z,82.84
2024-01-22T19:26:19.036Z,82.74
2024-01-22T19:31:21.958Z,82.66
2024-01-22T19:36:24.906Z,82.40
2024-01-22T19:41:27.925Z,82.37
2024-01-22T19:46:31.013Z,82.22
2024-01-22T19:51:34.097Z,82.26
2024-01-22T19:56:44.546Z,82.19
2024-01-22T20:01:47.442Z,82.10
2024-01-22T20:07:10.478Z,81.97
2024-01-22T20:12:33.622Z,82.12
2024-01-22T20:17:56.616Z,82.10
2024-01-22T20:23:20.050Z,82.24
2024-01-22T20:28:42.976Z,82.22
2024-01-22T20:34:06.004Z,82.31
2024-01-22T20:39:29.029Z,82.15
2024-01-22T20:44:52.385Z,82.12
2024-01-22T20:49:55.967Z,82.19
2024-01-22T20:54:59.006Z,81.87
2024-01-22T21:00:02.050Z,81.94
2024-01-22T21:05:25.238Z,81.95
2024-01-22T21:10:48.268Z,82.19
2024-01-22T21:16:12.179Z,82.01
2024-01-22T21:21:35.367Z,82.08
2024-01-22T21:26:58.252Z,82.16
2024-01-22T21:32:20.965Z,82.07
2024-01-22T21:37:43.872Z,81.94
2024-01-22T21:42:49.546Z,81.85
2024-01-22T21:47:52.472Z,81.48
2024-01-22T21:52:55.370Z,81.10
2024-01-22T21:57:58.108Z,80.87
2024-01-22T22:03:01.068Z,80.65
2024-01-22T22:08:24.210Z,80.37
2024-01-22T22:13:28.082Z,80.13
2024-01-22T22:18:31.742Z,80.22
2024-01-22T22:23:54.913Z,80.24
2024-01-22T22:29:17.752Z,80.06
2024-01-22T22:34:40.582Z,79.77
2024-01-22T22:40:03.768Z,79.69
2024-01-22T22:45:07.397Z,79.82
2024-01-22T22:50:11.280Z,79.76
2024-01-22T22:55:33.975Z,79.59
2024-01-22T23:00:56.755Z,79.45
2024-01-22T23:06:19.673Z,79.22
2024-01-22T23:11:42.666Z,78.98
2024-01-22T23:16:46.508Z,79.23
2024-01-22T23:21:49.610Z,79.21
2024-01-22T23:26:52.355Z,79.21
2024-01-22T23:31:55.133Z,79.25
2024-01-22T23:36:59.418Z,79.09
2024-01-22T23:42:02.314Z,79.08
2024-01-22T23:47:05.804Z,79.34
2024-01-22T23:52:08.930Z,79.17
2024-01-22T23:57:12.144Z,79.06
